Time;durP1;ratioP1;P1;durP2;ratioP2;P2;SDS_P1;SDS_P2;PMS_P1;PMS_P2;Temp;Humidity;BMP_temperature;BMP_pressure;BME280_temperature;BME280_humidity;BME280_pressure;Samples;Min_cycle;Max_cycle;Signal;HPM_P1;HPM_P2
2022/03/02 00:01:22;;;;;;;9.23;5.80;;;;;;;2.53;100.00;100026.84;5071204;28;20204;-80
2022/03/02 00:03:53;;;;;;;7.83;5.47;;;;;;;2.52;100.00;100029.50;5085504;27;20185;-79
2022/03/02 00:06:23;;;;;;;9.73;6.00;;;;;;;2.60;100.00;100024.97;5152685;27;20198;-78
2022/03/02 00:08:51;;;;;;;8.87;6.27;;;;;;;2.60;100.00;100019.75;5150817;27;20213;-79
2022/03/02 00:11:20;;;;;;;8.03;5.57;;;;;;;2.54;100.00;100019.88;5147770;27;20181;-79
2022/03/02 00:13:48;;;;;;;9.00;6.10;;;;;;;2.45;100.00;100027.88;5149236;27;20238;-79
2022/03/02 00:16:18;;;;;;;7.70;5.73;;;;;;;2.45;100.00;100031.34;5145150;27;20201;-79
2022/03/02 00:18:47;;;;;;;8.47;6.03;;;;;;;2.36;100.00;100028.88;5154552;27;20277;-79
2022/03/02 00:21:18;;;;;;;10.47;5.57;;;;;;;2.33;100.00;100018.50;5149331;27;20209;-79
2022/03/02 00:23:48;;;;;;;8.13;5.43;;;;;;;2.23;100.00;100015.16;5149115;27;20190;-79
2022/03/02 00:26:18;;;;;;;8.33;5.60;;;;;;;2.28;100.00;100017.69;5148247;27;20261;-78
2022/03/02 00:28:47;;;;;;;9.17;5.50;;;;;;;2.03;100.00;100021.56;5151990;27;20209;-79
2022/03/02 00:31:15;;;;;;;8.67;5.60;;;;;;;2.13;100.00;100012.72;5153190;27;20190;-78
2022/03/02 00:33:44;;;;;;;8.27;5.47;;;;;;;2.14;100.00;100017.06;5153193;27;20204;-78
2022/03/02 00:36:12;;;;;;;7.00;5.37;;;;;;;2.07;100.00;100011.06;5154377;27;20201;-78
2022/03/02 00:38:41;;;;;;;8.27;5.20;;;;;;;2.04;100.00;100012.88;5148509;27;20640;-79
2022/03/02 00:41:11;;;;;;;8.63;5.53;;;;;;;1.94;100.00;100009.53;5149861;27;20714;-78
2022/03/02 00:43:39;;;;;;;7.53;5.70;;;;;;;1.88;100.00;100009.63;5148546;27;20220;-78
2022/03/02 00:46:08;;;;;;;9.77;5.70;;;;;;;1.90;100.00;100002.63;5148098;27;20198;-78
2022/03/02 00:48:38;;;;;;;10.20;5.93;;;;;;;1.96;100.00;100006.00;5150991;27;20644;-78
2022/03/02 00:51:07;;;;;;;9.57;6.27;;;;;;;1.94;100.00;99994.72;5148077;27;20223;-79
2022/03/02 00:53:36;;;;;;;10.03;6.20;;;;;;;2.05;100.00;99996.31;5151453;27;20198;-78
2022/03/02 00:56:05;;;;;;;9.43;5.80;;;;;;;1.99;100.00;99987.66;5145562;27;20684;-78
2022/03/02 00:58:35;;;;;;;10.87;6.13;;;;;;;1.92;100.00;99985.16;5151985;27;20276;-78
2022/03/02 01:01:03;;;;;;;9.83;6.27;;;;;;;1.90;100.00;99985.19;5154728;27;20193;-79
2022/03/02 01:03:32;;;;;;;10.50;5.90;;;;;;;1.80;100.00;99977.53;5147888;27;20197;-78
2022/03/02 01:06:03;;;;;;;10.17;6.47;;;;;;;1.60;100.00;99973.47;5148643;27;20197;-79
2022/03/02 01:08:33;;;;;;;8.43;5.97;;;;;;;1.67;100.00;99961.19;5150757;27;20208;-78
2022/03/02 01:11:02;;;;;;;7.80;5.60;;;;;;;1.59;100.00;99968.25;5152692;27;20206;-79
2022/03/02 01:13:35;;;;;;;8.93;6.00;;;;;;;1.47;100.00;99960.63;5148729;27;20305;-79
2022/03/02 01:16:04;;;;;;;7.77;5.43;;;;;;;1.55;100.00;99964.00;5149926;27;20213;-79
2022/03/02 01:18:33;;;;;;;9.43;5.53;;;;;;;1.55;100.00;99951.78;5147167;27;20186;-79
2022/03/02 01:21:03;;;;;;;10.87;5.67;;;;;;;1.52;100.00;99958.78;5148378;27;20368;-79
2022/03/02 01:23:34;;;;;;;8.77;5.63;;;;;;;1.53;100.00;99950.94;5154235;27;20208;-78
2022/03/02 01:26:03;;;;;;;9.37;6.00;;;;;;;1.38;100.00;99946.81;5170688;27;20189;-79
2022/03/02 01:28:31;;;;;;;10.50;5.90;;;;;;;1.38;100.00;99938.13;5169992;27;20207;-78
2022/03/02 01:31:01;;;;;;;9.40;5.47;;;;;;;1.52;100.00;99941.38;5176206;27;20191;-79
2022/03/02 01:33:30;;;;;;;8.93;5.90;;;;;;;1.49;100.00;99943.19;5174448;27;20197;-79
2022/03/02 01:35:58;;;;;;;10.03;5.80;;;;;;;1.48;100.00;99937.09;5177147;27;20217;-79
2022/03/02 01:38:27;;;;;;;10.30;5.83;;;;;;;1.49;100.00;99933.59;5177505;27;20230;-78
2022/03/02 01:40:55;;;;;;;9.37;6.20;;;;;;;1.58;100.00;99928.25;5178103;27;20217;-79
2022/03/02 01:43:27;;;;;;;9.57;6.00;;;;;;;1.54;100.00;99930.91;5172911;27;20193;-78
2022/03/02 01:45:55;;;;;;;11.23;6.83;;;;;;;1.42;100.00;99921.50;5172628;27;20204;-79
2022/03/02 01:48:25;;;;;;;10.23;6.40;;;;;;;1.54;100.00;99928.28;5175324;27;20193;-78
2022/03/02 01:50:53;;;;;;;9.93;6.10;;;;;;;1.40;100.00;99926.75;5173698;27;20315;-78
2022/03/02 01:53:22;;;;;;;10.77;6.37;;;;;;;1.43;100.00;99921.50;5171215;27;20182;-80
2022/03/02 01:55:50;;;;;;;11.20;6.30;;;;;;;1.49;100.00;99922.31;5178372;27;20212;-79
2022/03/02 01:58:19;;;;;;;10.27;6.07;;;;;;;1.59;100.00;99916.91;5056871;28;20684;-78
2022/03/02 02:00:48;;;;;;;10.67;6.63;;;;;;;1.53;100.00;99914.38;5047688;28;20231;-79
2022/03/02 02:03:16;;;;;;;10.10;5.97;;;;;;;1.50;100.00;99913.59;5048971;28;20293;-79
2022/03/02 02:05:49;;;;;;;10.63;6.57;;;;;;;1.23;100.00;99915.69;5048599;28;20247;-79
2022/03/02 02:08:17;;;;;;;9.87;6.43;;;;;;;1.31;100.00;99905.16;5053221;28;20193;-79
2022/03/02 02:10:46;;;;;;;10.50;6.30;;;;;;;1.33;100.00;99913.81;5049978;28;20193;-79
2022/03/02 02:13:14;;;;;;;7.77;5.67;;;;;;;1.24;100.00;99911.34;5052539;28;20280;-79
2022/03/02 02:15:43;;;;;;;10.70;5.83;;;;;;;1.17;100.00;99914.94;5047266;28;20222;-78
2022/03/02 02:18:11;;;;;;;7.83;5.07;;;;;;;1.19;100.00;99907.94;5110022;28;20664;-79
2022/03/02 02:20:41;;;;;;;7.27;5.67;;;;;;;1.00;100.00;99902.13;5108256;28;20248;-78
2022/03/02 02:23:10;;;;;;;8.80;5.70;;;;;;;1.08;100.00;99913.31;5115732;27;20655;-78
2022/03/02 02:25:39;;;;;;;10.33;6.23;;;;;;;1.18;100.00;99901.00;5173646;27;20197;-78
2022/03/02 02:28:09;;;;;;;9.33;6.20;;;;;;;1.17;100.00;99897.53;5178810;27;20666;-78
2022/03/02 02:30:39;;;;;;;11.13;6.70;;;;;;;1.14;100.00;99895.81;5175528;27;20191;-79
2022/03/02 02:33:07;;;;;;;11.20;6.50;;;;;;;1.32;100.00;99888.63;5169659;27;20218;-78
2022/03/02 02:35:36;;;;;;;10.23;6.80;;;;;;;1.26;100.00;99892.19;5172976;27;20213;-79
2022/03/02 02:38:08;;;;;;;10.77;6.93;;;;;;;1.26;100.00;99896.56;5169050;27;20197;-79
2022/03/02 02:40:37;;;;;;;10.63;7.30;;;;;;;1.29;100.00;99896.50;5172388;27;20212;-78
2022/03/02 02:43:07;;;;;;;9.77;6.53;;;;;;;1.34;100.00;99898.13;5175885;27;20201;-79
2022/03/02 02:45:37;;;;;;;10.57;7.10;;;;;;;1.33;100.00;99891.19;5173115;27;20204;-79
2022/03/02 02:48:06;;;;;;;9.33;6.53;;;;;;;1.39;100.00;99885.03;5178802;27;20271;-79
2022/03/02 02:50:35;;;;;;;10.00;6.67;;;;;;;1.38;100.00;99886.78;5176693;27;20635;-79
2022/03/02 02:53:08;;;;;;;10.63;6.77;;;;;;;1.49;100.00;99883.16;5171689;27;20193;-79
2022/03/02 02:55:39;;;;;;;10.07;6.57;;;;;;;1.46;100.00;99881.47;5174400;27;20228;-79
2022/03/02 02:58:07;;;;;;;11.77;6.53;;;;;;;1.50;100.00;99884.88;5176439;27;20193;-79
2022/03/02 03:00:40;;;;;;;11.50;6.70;;;;;;;1.34;100.00;99876.41;5173075;27;20635;-79
2022/03/02 03:03:08;;;;;;;10.70;6.80;;;;;;;1.38;100.00;99878.09;5174345;27;20696;-79
2022/03/02 03:05:38;;;;;;;13.03;7.53;;;;;;;1.34;100.00;99879.00;5172714;27;20213;-79
2022/03/02 03:08:10;;;;;;;9.23;6.83;;;;;;;1.30;100.00;99869.50;5176142;27;20207;-79
2022/03/02 03:10:40;;;;;;;10.80;7.20;;;;;;;1.25;100.00;99866.09;5179510;27;20242;-79
2022/03/02 03:13:09;;;;;;;11.87;7.13;;;;;;;1.30;100.00;99859.94;5178340;27;20193;-79
2022/03/02 03:15:38;;;;;;;11.00;6.97;;;;;;;1.24;100.00;99859.16;5172878;27;20216;-78
2022/03/02 03:18:10;;;;;;;10.37;7.10;;;;;;;1.29;100.00;99854.75;5177689;27;20196;-79
2022/03/02 03:20:39;;;;;;;12.07;7.23;;;;;;;1.31;100.00;99853.81;5178765;27;20234;-78
2022/03/02 03:23:10;;;;;;;10.23;7.27;;;;;;;1.38;100.00;99849.38;5175417;27;20189;-79
2022/03/02 03:25:38;;;;;;;11.43;6.70;;;;;;;1.48;100.00;99843.13;5174009;27;20216;-77
2022/03/02 03:28:08;;;;;;;12.00;7.03;;;;;;;1.40;100.00;99848.47;5173337;27;20639;-78
2022/03/02 03:30:37;;;;;;;10.77;6.70;;;;;;;1.52;100.00;99846.53;5173949;27;20368;-79
2022/03/02 03:33:08;;;;;;;12.20;6.87;;;;;;;1.54;100.00;99857.81;5179826;27;20203;-78
2022/03/02 03:35:38;;;;;;;9.17;6.83;;;;;;;1.55;100.00;99865.66;5171338;27;20193;-78
2022/03/02 03:38:09;;;;;;;11.17;7.03;;;;;;;1.56;100.00;99854.31;5183965;27;20248;-78
2022/03/02 03:40:39;;;;;;;11.60;7.43;;;;;;;1.72;100.00;99854.91;5179981;27;20231;-79
2022/03/02 03:43:07;;;;;;;12.20;7.27;;;;;;;1.70;100.00;99864.53;5168174;27;20197;-78
2022/03/02 03:45:37;;;;;;;10.80;7.17;;;;;;;1.85;100.00;99858.19;5171900;27;20193;-78
2022/03/02 03:48:06;;;;;;;10.63;6.97;;;;;;;1.70;100.00;99859.31;5173651;27;20216;-79
2022/03/02 03:50:46;;;;;;;9.37;6.73;;;;;;;1.66;100.00;99861.09;5174865;27;20204;-79
2022/03/02 03:53:19;;;;;;;9.10;6.80;;;;;;;1.49;100.00;99862.25;5179951;27;20199;-78
2022/03/02 03:55:49;;;;;;;9.10;6.53;;;;;;;1.47;100.00;99864.03;5172823;27;20205;-79
2022/03/02 03:58:17;;;;;;;12.03;7.20;;;;;;;1.59;100.00;99858.63;5167309;27;20200;-78
2022/03/02 04:00:47;;;;;;;10.37;6.20;;;;;;;1.56;100.00;99862.16;5168835;27;20238;-79
2022/03/02 04:03:15;;;;;;;8.80;6.43;;;;;;;1.58;100.00;99859.50;5172950;27;20189;-79
2022/03/02 04:05:44;;;;;;;9.60;6.40;;;;;;;1.54;100.00;99863.03;5168429;27;20231;-78
2022/03/02 04:08:15;;;;;;;9.90;6.20;;;;;;;1.59;100.00;99856.00;5175449;27;20273;-78
2022/03/02 04:10:45;;;;;;;11.40;6.60;;;;;;;1.61;100.00;99855.09;5168409;27;20226;-78
2022/03/02 04:13:14;;;;;;;8.37;6.60;;;;;;;1.63;100.00;99852.44;5170647;27;20189;-79
2022/03/02 04:15:42;;;;;;;12.10;7.03;;;;;;;1.72;100.00;99850.53;5169591;27;20195;-78
2022/03/02 04:18:11;;;;;;;10.80;6.93;;;;;;;1.68;100.00;99850.63;5171056;27;20205;-79
2022/03/02 04:20:40;;;;;;;10.30;7.07;;;;;;;1.54;100.00;99844.75;5174871;27;20188;-79
2022/03/02 04:23:09;;;;;;;11.57;7.63;;;;;;;1.58;100.00;99846.47;5178734;27;20207;-78
2022/03/02 04:25:37;;;;;;;12.37;6.90;;;;;;;1.57;100.00;99844.75;5169273;27;20196;-79
2022/03/02 04:28:08;;;;;;;11.40;7.13;;;;;;;1.56;100.00;99835.19;5169258;27;20189;-79
2022/03/02 04:30:38;;;;;;;10.83;6.90;;;;;;;1.66;100.00;99836.75;5169636;27;20193;-79
2022/03/02 04:33:06;;;;;;;12.70;7.13;;;;;;;1.55;100.00;99830.84;5174869;27;20185;-79
2022/03/02 04:35:35;;;;;;;12.63;7.37;;;;;;;1.56;100.00;99840.41;5173766;27;20294;-79
2022/03/02 04:38:04;;;;;;;10.20;7.47;;;;;;;1.68;100.00;99829.75;5173021;27;20213;-78
2022/03/02 04:40:33;;;;;;;11.67;8.13;;;;;;;1.55;100.00;99833.47;5169869;27;20220;-79
2022/03/02 04:43:01;;;;;;;10.70;7.37;;;;;;;1.51;100.00;99832.63;5110705;28;20199;-78
2022/03/02 04:45:31;;;;;;;10.20;7.17;;;;;;;1.63;100.00;99831.56;5107805;28;20199;-78
2022/03/02 04:48:02;;;;;;;12.97;7.83;;;;;;;1.51;100.00;99832.63;5108918;28;20187;-78
2022/03/02 04:50:31;;;;;;;11.93;7.70;;;;;;;1.56;100.00;99832.56;5114138;28;20195;-79
2022/03/02 04:53:00;;;;;;;10.67;7.70;;;;;;;1.55;100.00;99830.84;5111531;28;20190;-78
2022/03/02 04:55:28;;;;;;;13.00;8.33;;;;;;;1.44;100.00;99831.00;5112131;28;20247;-79
2022/03/02 04:57:59;;;;;;;12.37;8.30;;;;;;;1.52;100.00;99826.53;5106776;28;20211;-78
2022/03/02 05:00:29;;;;;;;12.00;8.33;;;;;;;1.55;100.00;99823.03;5114995;28;20191;-79
2022/03/02 05:03:04;;;;;;;12.90;8.70;;;;;;;1.58;100.00;99822.97;5108680;28;20195;-78
2022/03/02 05:05:35;;;;;;;14.80;8.07;;;;;;;1.59;100.00;99822.94;5106528;28;20186;-79
2022/03/02 05:08:04;;;;;;;11.97;8.40;;;;;;;1.68;100.00;99822.78;5135082;27;20198;-78
2022/03/02 05:10:35;;;;;;;11.47;7.87;;;;;;;1.65;100.00;99815.00;5157667;27;20185;-78
2022/03/02 05:13:04;;;;;;;14.03;8.27;;;;;;;1.58;100.00;99818.59;5157118;27;20196;-78
2022/03/02 05:15:32;;;;;;;12.47;8.10;;;;;;;1.70;100.00;99813.16;5151208;27;20202;-78
2022/03/02 05:18:04;;;;;;;11.37;7.30;;;;;;;1.67;100.00;99818.44;5150181;27;20217;-79
2022/03/02 05:20:32;;;;;;;13.53;8.50;;;;;;;1.67;100.00;99817.59;5153345;27;20198;-79
2022/03/02 05:23:01;;;;;;;15.47;9.50;;;;;;;1.77;100.00;99813.91;5053836;28;20192;-78
2022/03/02 05:25:29;;;;;;;16.27;9.80;;;;;;;1.77;100.00;99810.44;5044826;28;20606;-78
2022/03/02 05:27:57;;;;;;;15.43;10.23;;;;;;;1.93;100.00;99815.38;5054050;28;20197;-78
2022/03/02 05:30:26;;;;;;;17.83;12.10;;;;;;;1.92;100.00;99813.63;5050169;28;20219;-78
2022/03/02 05:32:54;;;;;;;16.37;12.03;;;;;;;1.97;100.00;99805.72;5056528;28;20193;-79
2022/03/02 05:35:24;;;;;;;13.67;9.43;;;;;;;1.95;100.00;99803.13;5044868;28;20209;-79
2022/03/02 05:37:52;;;;;;;11.30;7.83;;;;;;;1.97;100.00;99800.50;5053783;28;20212;-79
2022/03/02 05:40:21;;;;;;;14.20;7.80;;;;;;;2.08;100.00;99801.16;5063150;28;20218;-79
2022/03/02 05:42:53;;;;;;;10.90;7.40;;;;;;;2.03;100.00;99804.72;5119233;28;20219;-79
2022/03/02 05:45:22;;;;;;;12.03;7.57;;;;;;;1.99;100.00;99803.94;5117380;28;20206;-78
2022/03/02 05:47:50;;;;;;;10.50;7.63;;;;;;;1.94;100.00;99808.41;5119554;28;20210;-78
2022/03/02 05:50:18;;;;;;;10.43;7.43;;;;;;;1.87;100.00;99807.63;5119777;28;20191;-78
2022/03/02 05:52:49;;;;;;;13.37;7.27;;;;;;;1.86;100.00;99812.91;5116278;28;20195;-78
2022/03/02 05:55:17;;;;;;;10.53;7.60;;;;;;;1.86;100.00;99818.13;5112549;28;20199;-79
2022/03/02 05:57:46;;;;;;;9.40;6.87;;;;;;;1.90;100.00;99812.81;5111657;28;20225;-78
2022/03/02 06:00:15;;;;;;;9.13;6.93;;;;;;;1.88;100.00;99811.13;5093483;28;20201;-78
2022/03/02 06:02:43;;;;;;;10.80;7.13;;;;;;;1.83;100.00;99807.72;5091860;28;20192;-78
2022/03/02 06:05:14;;;;;;;11.53;7.40;;;;;;;1.85;100.00;99805.97;5088038;28;20275;-78
2022/03/02 06:07:43;;;;;;;10.87;7.67;;;;;;;1.85;100.00;99803.34;5090825;28;20287;-78
2022/03/02 06:10:19;;;;;;;10.57;7.17;;;;;;;1.91;100.00;99805.81;5092366;28;20188;-78
2022/03/02 06:12:48;;;;;;;10.80;7.07;;;;;;;1.94;100.00;99800.56;5083695;28;20311;-78
2022/03/02 06:15:17;;;;;;;11.67;8.00;;;;;;;1.87;100.00;99812.88;5088811;28;20187;-78
2022/03/02 06:17:46;;;;;;;14.57;9.47;;;;;;;1.94;100.00;99811.00;5088050;28;20227;-78
2022/03/02 06:20:17;;;;;;;14.97;9.00;;;;;;;1.99;100.00;99806.53;5060124;28;20275;-78
2022/03/02 06:22:47;;;;;;;11.40;7.53;;;;;;;1.99;100.00;99807.41;5096208;28;20192;-78
2022/03/02 06:25:19;;;;;;;10.80;7.30;;;;;;;2.05;100.00;99795.13;5107066;28;20195;-78
2022/03/02 06:27:48;;;;;;;11.60;8.23;;;;;;;2.01;100.00;99799.53;5123406;28;20197;-78
2022/03/02 06:30:18;;;;;;;12.70;8.77;;;;;;;2.07;100.00;99796.81;5073036;28;20210;-78
2022/03/02 06:32:48;;;;;;;12.03;8.50;;;;;;;2.12;100.00;99801.94;5112344;28;20284;-78
2022/03/02 06:35:16;;;;;;;13.93;9.10;;;;;;;2.11;100.00;99801.06;5119994;28;20268;-78
2022/03/02 06:37:47;;;;;;;13.30;9.07;;;;;;;2.14;100.00;99801.03;5120816;28;20219;-78
2022/03/02 06:40:15;;;;;;;11.47;8.50;;;;;;;2.10;100.00;99796.75;5133125;27;20229;-78
2022/03/02 06:42:59;;;;;;;15.33;8.77;;;;;;;2.12;100.00;99797.56;5164241;27;20632;-78
2022/03/02 06:45:54;;;;;;;12.53;8.17;;;;;;;2.18;100.00;99805.31;5157966;27;20202;-78
2022/03/02 06:48:27;;;;;;;14.77;8.73;;;;;;;2.20;100.00;99802.66;5147332;27;20186;-78
2022/03/02 06:50:59;;;;;;;11.80;7.27;;;;;;;1.96;100.00;99804.00;5153661;27;20190;-78
2022/03/02 06:53:33;;;;;;;14.27;7.53;;;;;;;2.00;100.00;99805.66;5153008;27;20192;-78
2022/03/02 06:56:03;;;;;;;10.87;7.73;;;;;;;2.06;100.00;99807.31;5151786;27;20197;-78
2022/03/02 06:58:41;;;;;;;12.23;8.17;;;;;;;2.10;100.00;99803.72;5150065;27;20218;-78
2022/03/02 07:01:11;;;;;;;9.60;7.57;;;;;;;2.18;100.00;99809.66;5155464;27;20254;-78
2022/03/02 07:03:47;;;;;;;12.03;8.27;;;;;;;2.18;100.00;99810.53;5156299;27;20229;-77
2022/03/02 07:06:16;;;;;;;13.20;8.63;;;;;;;2.07;100.00;99811.63;5155397;27;20208;-77
2022/03/02 07:08:48;;;;;;;15.73;8.97;;;;;;;2.16;100.00;99817.53;5149308;27;20197;-78
2022/03/02 07:11:18;;;;;;;13.10;8.00;;;;;;;2.26;100.00;99821.69;5152170;27;20204;-78
2022/03/02 07:13:49;;;;;;;11.70;8.27;;;;;;;2.28;100.00;99819.91;5153826;27;20221;-78
2022/03/02 07:16:21;;;;;;;14.73;8.73;;;;;;;2.38;100.00;99827.56;5152285;27;20243;-78
2022/03/02 07:18:51;;;;;;;15.57;8.87;;;;;;;2.36;100.00;99831.97;5148990;27;20262;-78
2022/03/02 07:21:27;;;;;;;16.23;9.10;;;;;;;2.39;100.00;99835.38;5147796;27;20703;-78
2022/03/02 07:23:57;;;;;;;12.43;9.03;;;;;;;2.34;100.00;99832.00;5153184;27;20205;-78
2022/03/02 07:26:28;;;;;;;12.50;8.83;;;;;;;2.39;100.00;99829.28;5151347;27;20193;-78
2022/03/02 07:29:01;;;;;;;13.30;9.10;;;;;;;2.49;100.00;99836.06;5151678;27;20250;-78
2022/03/02 07:31:31;;;;;;;14.37;9.50;;;;;;;2.47;100.00;99830.88;5152357;27;20193;-78
2022/03/02 07:34:12;;;;;;;14.50;9.40;;;;;;;2.52;100.00;99836.00;5154476;27;20208;-78
2022/03/02 07:36:42;;;;;;;16.13;8.87;;;;;;;2.46;100.00;99826.53;5144511;27;20201;-78
2022/03/02 07:39:12;;;;;;;13.57;9.27;;;;;;;2.53;100.00;99838.59;5152812;27;20210;-78
2022/03/02 07:41:41;;;;;;;15.23;9.27;;;;;;;2.54;100.00;99829.84;5155836;27;20217;-78
2022/03/02 07:44:11;;;;;;;13.10;8.80;;;;;;;2.63;100.00;99830.56;5150691;27;20193;-78
2022/03/02 07:46:40;;;;;;;13.70;9.10;;;;;;;2.63;100.00;99825.31;5151848;27;20198;-79
2022/03/02 07:49:11;;;;;;;13.07;9.10;;;;;;;2.68;100.00;99823.47;5150349;27;20198;-78
2022/03/02 07:51:40;;;;;;;14.70;8.90;;;;;;;2.80;100.00;99820.59;5147684;27;20182;-78
2022/03/02 07:54:09;;;;;;;14.03;9.07;;;;;;;2.84;100.00;99822.25;5153084;27;20280;-78
2022/03/02 07:56:38;;;;;;;13.50;8.90;;;;;;;2.82;100.00;99817.06;5155943;27;20192;-78
2022/03/02 07:59:09;;;;;;;13.73;8.90;;;;;;;2.86;100.00;99815.22;5152441;27;20217;-78
2022/03/02 08:01:42;;;;;;;12.57;9.27;;;;;;;3.01;100.00;99822.75;5152016;27;20683;-78
2022/03/02 08:04:14;;;;;;;15.20;8.80;;;;;;;2.93;100.00;99827.28;5145792;27;20202;-78
2022/03/02 08:06:43;;;;;;;15.83;9.47;;;;;;;3.06;100.00;99825.22;5140703;27;20201;-77
2022/03/02 08:09:13;;;;;;;13.87;9.17;;;;;;;3.07;100.00;99832.19;5156003;27;20250;-78
2022/03/02 08:11:41;;;;;;;12.23;8.77;;;;;;;3.15;100.00;99830.25;5144834;27;20197;-78
2022/03/02 08:14:10;;;;;;;13.13;9.20;;;;;;;3.16;100.00;99829.34;5147437;27;20185;-78
2022/03/02 08:16:40;;;;;;;15.47;9.10;;;;;;;3.36;100.00;99834.13;5152584;27;20186;-78
2022/03/02 08:19:11;;;;;;;13.40;9.20;;;;;;;3.40;100.00;99834.03;5150226;27;20243;-78
2022/03/02 08:21:43;;;;;;;12.27;9.20;;;;;;;3.57;100.00;99825.78;5151770;27;20221;-78
2022/03/02 08:24:14;;;;;;;14.60;9.27;;;;;;;3.71;100.00;99825.41;5146375;27;20192;-78
2022/03/02 08:26:42;;;;;;;15.30;8.60;;;;;;;3.75;100.00;99819.19;5152335;27;20688;-78
2022/03/02 08:29:13;;;;;;;13.57;8.60;;;;;;;3.96;100.00;99818.66;5048727;28;20193;-78
2022/03/02 08:31:43;;;;;;;13.30;9.00;;;;;;;4.12;100.00;99824.31;5043181;28;20201;-78
2022/03/02 08:34:15;;;;;;;12.93;9.03;;;;;;;4.23;100.00;99821.41;5051743;28;20189;-79
2022/03/02 08:36:44;;;;;;;17.90;9.60;;;;;;;3.93;100.00;99820.47;5042052;28;20197;-78
2022/03/02 08:39:15;;;;;;;14.70;9.27;;;;;;;4.05;100.00;99821.91;5047841;28;20225;-77
2022/03/02 08:41:43;;;;;;;16.70;8.50;;;;;;;4.20;100.00;99813.63;5042010;28;20220;-78
2022/03/02 08:44:12;;;;;;;12.77;8.57;;;;;;;4.36;100.00;99819.31;5046597;28;20235;-78
2022/03/02 08:46:41;;;;;;;13.60;9.37;;;;;;;4.48;100.00;99811.09;5068248;27;20194;-78
2022/03/02 08:49:10;;;;;;;13.77;8.83;;;;;;;4.43;100.00;99810.34;5147571;27;20194;-79
2022/03/02 08:51:41;;;;;;;12.30;8.50;;;;;;;4.58;100.00;99810.78;5143271;27;20193;-79
2022/03/02 08:54:11;;;;;;;16.00;8.67;;;;;;;4.77;100.00;99811.09;5155193;27;20193;-77
2022/03/02 08:56:41;;;;;;;13.33;8.73;;;;;;;4.91;100.00;99815.06;5149899;27;20196;-79
2022/03/02 08:59:14;;;;;;;12.77;8.00;;;;;;;4.93;100.00;99810.66;5151949;27;20210;-78
2022/03/02 09:01:49;;;;;;;11.03;8.33;;;;;;;5.00;100.00;99804.28;5148142;27;20194;-79
2022/03/02 09:04:18;;;;;;;13.40;8.40;;;;;;;5.06;100.00;99806.72;5152180;27;20193;-79
2022/03/02 09:06:50;;;;;;;10.53;7.33;;;;;;;5.06;100.00;99806.72;5148891;27;20189;-79
2022/03/02 09:09:18;;;;;;;12.57;7.63;;;;;;;5.11;100.00;99800.41;5151866;27;20648;-79
2022/03/02 09:11:48;;;;;;;11.57;7.67;;;;;;;5.21;100.00;99794.88;5147344;27;20189;-79
2022/03/02 09:14:18;;;;;;;13.60;7.73;;;;;;;5.38;100.00;99800.44;5151910;27;20254;-79
2022/03/02 09:16:46;;;;;;;12.63;7.63;;;;;;;5.40;100.00;99799.50;5151824;27;20596;-79
2022/03/02 09:19:15;;;;;;;11.20;7.83;;;;;;;5.45;100.00;99794.94;5144879;27;20225;-79
2022/03/02 09:21:44;;;;;;;11.83;7.20;;;;;;;5.58;100.00;99794.53;5145764;27;20197;-78
2022/03/02 09:24:15;;;;;;;10.37;7.47;;;;;;;5.62;100.00;99786.50;5150113;27;20219;-78
2022/03/02 09:26:44;;;;;;;10.17;7.77;;;;;;;5.68;100.00;99794.16;5148120;27;20190;-78
2022/03/02 09:29:17;;;;;;;9.83;7.00;;;;;;;5.68;100.00;99782.81;5152076;27;20190;-79
2022/03/02 09:31:51;;;;;;;11.07;7.53;;;;;;;5.85;100.00;99783.09;5145190;27;20201;-79
2022/03/02 09:34:25;;;;;;;21.30;13.27;;;;;;;6.15;100.00;99778.53;5151610;27;20204;-79
2022/03/02 09:36:55;;;;;;;9.90;7.30;;;;;;;6.58;100.00;99777.84;5149549;27;20193;-79
2022/03/02 09:39:29;;;;;;;11.20;7.57;;;;;;;6.88;100.00;99783.69;5154515;27;20213;-79
2022/03/02 09:42:04;;;;;;;10.43;7.00;;;;;;;6.87;99.29;99775.88;5151459;27;20218;-80
2022/03/02 09:44:40;;;;;;;12.40;7.10;;;;;;;7.13;97.85;99765.13;5144583;27;20190;-79
2022/03/02 09:47:10;;;;;;;8.73;6.50;;;;;;;7.24;93.34;99770.00;5151337;27;20190;-80
2022/03/02 09:49:44;;;;;;;10.33;7.27;;;;;;;7.38;92.87;99770.28;5146929;27;20262;-80
2022/03/02 09:52:17;;;;;;;10.50;6.97;;;;;;;7.31;91.55;99767.94;5153620;27;20186;-80
2022/03/02 09:54:52;;;;;;;8.97;6.00;;;;;;;7.55;86.99;99766.09;5147263;27;20205;-79
2022/03/02 09:57:22;;;;;;;9.10;6.40;;;;;;;7.36;82.17;99768.63;5151017;27;20189;-79
2022/03/02 09:59:54;;;;;;;10.00;6.40;;;;;;;7.53;79.09;99765.28;5159174;27;20209;-79
2022/03/02 10:02:36;;;;;;;10.37;6.60;;;;;;;7.36;77.03;99766.00;5156239;27;20201;-78
2022/03/02 10:05:08;;;;;;;11.10;6.70;;;;;;;7.38;75.55;99765.00;5151066;27;20269;-78
2022/03/02 10:07:40;;;;;;;10.17;6.70;;;;;;;7.41;73.92;99754.34;5154947;27;20292;-79
2022/03/02 10:10:13;;;;;;;9.37;5.97;;;;;;;7.61;73.45;99764.03;5150456;27;20613;-79
2022/03/02 10:12:42;;;;;;;8.60;6.30;;;;;;;7.53;71.46;99757.38;5150643;27;20198;-79
2022/03/02 10:15:13;;;;;;;7.00;5.10;;;;;;;7.59;64.40;99762.41;5146770;27;20186;-79
2022/03/02 10:17:44;;;;;;;8.03;5.10;;;;;;;7.64;63.71;99757.81;5153818;27;20193;-78
2022/03/02 10:20:17;;;;;;;8.17;5.47;;;;;;;7.75;62.69;99771.38;5154266;27;20246;-79
2022/03/02 10:23:14;;;;;;;8.37;5.50;;;;;;;7.85;62.11;99782.41;5147796;27;20186;-79
2022/03/02 10:25:52;;;;;;;8.33;5.10;;;;;;;7.73;58.98;99779.38;5148652;27;20193;-79
2022/03/02 10:28:27;;;;;;;8.40;5.27;;;;;;;8.03;56.98;99776.34;5148795;27;20190;-79
2022/03/02 10:31:14;;;;;;;5.73;4.60;;;;;;;8.55;55.90;99768.75;5155922;27;20199;-79
2022/03/02 10:33:48;;;;;;;7.33;4.97;;;;;;;8.78;51.63;99772.94;5153448;27;20196;-80
2022/03/02 10:36:17;;;;;;;8.73;4.80;;;;;;;9.06;50.87;99773.34;5146974;27;20201;-80
2022/03/02 10:38:50;;;;;;;8.00;5.37;;;;;;;9.28;50.05;99764.41;5148020;27;20223;-79
2022/03/02 10:41:22;;;;;;;7.60;5.10;;;;;;;9.41;49.85;99762.88;5154399;27;20687;-80
2022/03/02 10:43:57;;;;;;;8.00;4.90;;;;;;;9.64;49.23;99759.06;5090433;28;20196;-79
2022/03/02 10:46:29;;;;;;;7.17;5.17;;;;;;;9.87;48.12;99755.25;5087363;28;20289;-80
2022/03/02 10:49:06;;;;;;;7.23;5.70;;;;;;;10.06;47.76;99760.47;5050393;28;20667;-79
2022/03/02 10:51:38;;;;;;;7.00;5.10;;;;;;;10.15;45.95;99744.94;5049522;28;20204;-79
2022/03/02 10:54:08;;;;;;;7.57;5.00;;;;;;;10.23;45.92;99742.78;5048556;28;20201;-79
2022/03/02 10:56:45;;;;;;;10.53;5.43;;;;;;;10.64;45.84;99742.34;5050194;28;20279;-79
2022/03/02 10:59:16;;;;;;;6.30;4.90;;;;;;;10.42;44.19;99740.00;5046605;28;20200;-79
2022/03/02 11:01:51;;;;;;;6.30;5.30;;;;;;;10.54;43.72;99734.03;5056480;28;20287;-80
2022/03/02 11:04:23;;;;;;;8.47;5.00;;;;;;;10.10;43.01;99730.22;5070246;28;20228;-80
2022/03/02 11:06:54;;;;;;;6.60;5.63;;;;;;;10.51;44.44;99730.69;5069449;28;20203;-79
2022/03/02 11:09:48;;;;;;;7.23;5.30;;;;;;;10.89;45.00;99731.22;5072439;28;20197;-80
2022/03/02 11:12:20;;;;;;;7.20;5.70;;;;;;;10.56;42.55;99731.31;5011688;28;20277;-79
2022/03/02 11:14:57;;;;;;;6.77;4.83;;;;;;;9.82;41.65;99734.31;5013882;28;20232;-79
2022/03/02 11:17:27;;;;;;;7.33;5.50;;;;;;;10.28;41.90;99718.69;5012582;28;20224;-80
2022/03/02 11:19:58;;;;;;;5.60;5.00;;;;;;;10.35;42.63;99725.38;5027814;28;20267;-79
2022/03/02 11:22:28;;;;;;;9.13;5.53;;;;;;;10.80;41.88;99716.69;5092879;28;20223;-79
2022/03/02 11:25:02;;;;;;;6.63;5.17;;;;;;;10.94;41.26;99707.13;5090044;28;20198;-79
2022/03/02 11:27:38;;;;;;;11.90;5.80;;;;;;;11.04;41.01;99703.84;5053207;28;20202;-79
2022/03/02 11:30:11;;;;;;;9.33;5.80;;;;;;;11.04;40.73;99700.34;5114621;27;20185;-79
2022/03/02 11:32:41;;;;;;;6.20;5.10;;;;;;;10.72;40.25;99699.53;5147936;27;20197;-79
2022/03/02 11:35:19;;;;;;;6.27;5.40;;;;;;;10.60;40.51;99690.44;5152919;27;20284;-79
2022/03/02 11:37:57;;;;;;;5.90;5.10;;;;;;;10.71;39.32;99685.44;5148299;27;20181;-79
2022/03/02 11:40:40;;;;;;;7.27;5.50;;;;;;;11.16;38.80;99678.44;5150832;27;20676;-79
2022/03/02 11:43:19;;;;;;;6.77;5.27;;;;;;;11.82;39.03;99674.56;5156144;27;20281;-80
2022/03/02 11:45:56;;;;;;;7.00;5.40;;;;;;;11.44;38.12;99669.72;5151785;27;20273;-79